Pagrindinis puslapis
METAR-TAF:

METAR-TAF

Oro uostai :

Hujė, Vietnamas

platuma: 16-24N, ilguma: 107-41E, Aukštis: 17 m

Dabartinis oras

Ataskaita buvo paskelbta 26 minutes, ne 00:30 UTC
Vėjas 4 kt iš Pietų
Temperatūra 24°C
Drėgmė 83%
Slėgis 1007 hPa
Matomumas: 8000 m
Mažai debesys ne aukštis 1500 ft

METAR: VVPB 260030Z 17004KT 8000 FEW015 24/21 Q1007 NOSIG

Laikas: 07:56 (00:56 UTC)

Prognozė

Ataskaita buvo paskelbta 1 valandą ir 56 minutes, ne 23:00 UTC
Prognozė galioja nuo 26 metu 00 UTC su 26 metu 24 UTC
Vėjas 4 kt iš Vakarų/Pietvakarių
Matomumas: 4000 m
Mažai debesys ne aukštis 1500 ft
Išsisklaidę debesys ne aukštis 5000 ft
rūkana
Tapsmas
nuo 26 metu 00 UTC su 26 metu 01 UTC
Matomumas: 6000 m
Tapsmas
nuo 26 metu 04 UTC su 26 metu 05 UTC
Vėjas 10 kt iš Rytų
Tapsmas
nuo 26 metu 12 UTC su 26 metu 13 UTC
Vėjas 5 kt iš Vakarų/Šiaurės Vakarų
Tapsmas
nuo 26 metu 20 UTC su 26 metu 21 UTC
Matomumas: 4000 m
rūkana

TAF: VVPB 252300Z 2600/2624 25004KT 4000 BR FEW015 SCT050 BECMG 2600/2601 6000 NSW BECMG 2604/2605 09010KT BECMG 2612/2613 29005KT BECMG 2620/2621 4000 BR

Orai ataskaitas ir orų prognozės (METAR, TAF).

turimą stotys yra geltonos ir raudonos taškus žemėlapyje.

Perkelti pele per norėdami pamatyti stoties vardą.

Tada spustelėkite, norėdami matyti oro stebėjimo ir prognozės.

Norėdami pakeisti žemėlapį: spustelėkite ant žalios mygtukų su juodo kryžiaus žemyn,; žalią mygtuką su brūkšneliu, jei norite nutolinti; arba žalių rodyklių gretimoms žemėlapius.


METAR-TAF: